Time;durP1;ratioP1;P1;durP2;ratioP2;P2;SDS_P1;SDS_P2;PMS_P1;PMS_P2;Temp;Humidity;BMP_temperature;BMP_pressure;BME280_temperature;BME280_humidity;BME280_pressure;Samples;Min_cycle;Max_cycle;Signal;HPM_P1;HPM_P2
2023/04/06 00:00:37;;;;;;;22.50;13.60;;;;;;;-0.82;64.00;94529.00;5064917;28;20409;-76
2023/04/06 00:03:03;;;;;;;19.52;11.77;;;;;;;-0.93;63.14;94509.06;5089951;28;20077;-75
2023/04/06 00:05:30;;;;;;;16.85;10.55;;;;;;;-0.81;62.77;94517.91;5072830;28;20040;-75
2023/04/06 00:07:57;;;;;;;19.35;10.98;;;;;;;-0.71;62.18;94520.00;5073138;28;20040;-76
2023/04/06 00:10:22;;;;;;;78.70;23.98;;;;;;;-0.58;62.15;94522.03;5085414;28;20028;-76
2023/04/06 00:12:48;;;;;;;23.25;13.35;;;;;;;-0.49;62.41;94513.97;5070968;28;20033;-76
2023/04/06 00:15:13;;;;;;;18.48;11.73;;;;;;;-0.52;61.96;94514.91;5078322;28;20036;-76
2023/04/06 00:17:39;;;;;;;15.27;9.98;;;;;;;-0.53;61.50;94505.63;5089876;28;20028;-75
2023/04/06 00:20:06;;;;;;;18.52;10.43;;;;;;;-0.44;61.25;94506.94;5086011;28;20032;-76
2023/04/06 00:22:32;;;;;;;21.92;11.32;;;;;;;-0.52;61.76;94504.72;5070160;28;20085;-76
2023/04/06 00:24:57;;;;;;;19.23;10.20;;;;;;;-0.55;61.13;94478.50;5089714;28;20234;-76
2023/04/06 00:27:23;;;;;;;23.40;12.18;;;;;;;-0.45;61.80;94495.03;5106889;28;20108;-76
2023/04/06 00:29:48;;;;;;;23.40;11.52;;;;;;;-0.37;61.63;94492.16;5088079;28;20567;-74
2023/04/06 00:32:14;;;;;;;22.27;13.10;;;;;;;-0.34;61.39;94499.66;5072432;28;20409;-74
2023/04/06 00:34:39;;;;;;;23.25;13.23;;;;;;;-0.30;62.05;94501.19;5090578;28;20044;-74
2023/04/06 00:37:05;;;;;;;20.27;12.23;;;;;;;-0.21;62.42;94507.59;5068148;28;20118;-76
2023/04/06 00:39:31;;;;;;;17.83;11.63;;;;;;;-0.26;61.98;94500.16;5097012;28;20421;-74
2023/04/06 00:41:56;;;;;;;24.25;12.93;;;;;;;-0.49;62.31;94478.22;5089517;28;20036;-74
2023/04/06 00:44:22;;;;;;;21.05;11.10;;;;;;;-0.50;61.06;94491.91;5072702;28;20031;-76
2023/04/06 00:46:47;;;;;;;18.58;10.45;;;;;;;-0.48;61.71;94496.00;5068472;28;20029;-74
2023/04/06 00:49:13;;;;;;;24.85;12.20;;;;;;;-0.48;61.12;94485.81;5052691;28;20421;-74
2023/04/06 00:51:38;;;;;;;21.00;11.32;;;;;;;-0.50;61.55;94477.41;5088963;28;20032;-74
2023/04/06 00:54:04;;;;;;;15.60;9.88;;;;;;;-0.36;60.72;94488.69;5072557;28;20046;-74
2023/04/06 00:56:29;;;;;;;16.38;9.18;;;;;;;-0.40;60.42;94479.53;5069018;28;20474;-74
2023/04/06 00:58:55;;;;;;;12.70;8.50;;;;;;;-0.34;61.50;94492.00;5070461;28;20028;-74
2023/04/06 01:01:21;;;;;;;15.57;9.48;;;;;;;-0.26;61.46;94493.31;5080256;28;20032;-76
2023/04/06 01:03:48;;;;;;;18.95;10.05;;;;;;;-0.31;61.37;94494.41;5072405;28;20391;-76
2023/04/06 01:06:14;;;;;;;14.55;10.05;;;;;;;-0.42;61.06;94481.31;5068761;28;20053;-74
2023/04/06 01:08:40;;;;;;;14.07;9.48;;;;;;;-0.24;61.46;94490.69;5035922;28;20083;-74
2023/04/06 01:11:05;;;;;;;17.10;10.38;;;;;;;-0.24;60.75;94475.38;5071194;28;20063;-74
2023/04/06 01:13:31;;;;;;;17.58;10.15;;;;;;;-0.36;60.77;94486.13;5068528;28;20486;-74
2023/04/06 01:15:56;;;;;;;17.85;10.13;;;;;;;-0.30;60.81;94473.94;5059167;28;20032;-74
2023/04/06 01:18:28;;;;;;;15.50;9.30;;;;;;;-0.21;60.91;94479.53;5072478;28;20418;-74
2023/04/06 01:20:53;;;;;;;17.35;10.02;;;;;;;-0.23;60.59;94466.81;5123370;28;20038;-74
2023/04/06 01:23:19;;;;;;;14.68;9.48;;;;;;;-0.24;60.30;94462.63;5068629;28;20037;-74
2023/04/06 01:25:45;;;;;;;15.45;9.70;;;;;;;-0.33;60.92;94475.81;5051991;28;20119;-74
2023/04/06 01:28:10;;;;;;;13.77;9.05;;;;;;;-0.43;61.25;94465.19;5084435;28;20097;-74
2023/04/06 01:30:36;;;;;;;14.27;10.05;;;;;;;-0.25;61.21;94476.28;5088824;28;20038;-74
2023/04/06 01:33:01;;;;;;;15.18;9.05;;;;;;;-0.19;61.58;94468.34;5088201;28;20560;-74
2023/04/06 01:35:27;;;;;;;17.33;10.68;;;;;;;-0.23;61.38;94477.03;5089042;28;20028;-74
2023/04/06 01:37:52;;;;;;;16.13;10.65;;;;;;;-0.27;61.13;94461.03;5072204;28;20035;-75
2023/04/06 01:40:18;;;;;;;16.50;10.55;;;;;;;-0.26;61.25;94472.88;5071394;28;20498;-74
2023/04/06 01:42:43;;;;;;;16.17;9.52;;;;;;;-0.28;61.39;94466.19;5074219;28;20155;-74
2023/04/06 01:45:09;;;;;;;16.95;9.80;;;;;;;-0.35;61.21;94459.72;5075221;28;20497;-74
2023/04/06 01:47:34;;;;;;;20.48;10.85;;;;;;;-0.31;61.00;94461.22;5054900;28;20037;-75
2023/04/06 01:50:00;;;;;;;16.48;10.32;;;;;;;-0.27;61.19;94467.88;5059439;28;20406;-74
2023/04/06 01:52:25;;;;;;;16.63;10.23;;;;;;;-0.25;61.65;94474.56;5055635;28;20043;-74
2023/04/06 01:54:51;;;;;;;18.55;11.40;;;;;;;-0.22;61.56;94465.94;5091766;28;20425;-74
2023/04/06 01:57:16;;;;;;;15.60;10.13;;;;;;;-0.21;61.07;94457.38;5092440;28;20039;-74
2023/04/06 01:59:42;;;;;;;16.90;9.95;;;;;;;-0.24;61.42;94458.34;5088097;28;20482;-74
2023/04/06 02:02:07;;;;;;;18.42;10.48;;;;;;;-0.22;61.63;94465.94;5073267;28;20025;-74
2023/04/06 02:04:33;;;;;;;15.35;9.35;;;;;;;-0.23;61.42;94454.06;5086726;28;20505;-74
2023/04/06 02:06:58;;;;;;;15.07;9.30;;;;;;;-0.15;61.02;94456.25;5092014;28;20063;-74
2023/04/06 02:09:24;;;;;;;16.55;9.85;;;;;;;-0.20;61.18;94459.00;5088299;28;20036;-74
2023/04/06 02:11:49;;;;;;;16.05;10.13;;;;;;;-0.19;61.96;94449.66;5075928;28;20509;-75
2023/04/06 02:14:15;;;;;;;15.50;9.02;;;;;;;-0.26;61.94;94424.38;5075221;28;20036;-74
2023/04/06 02:16:41;;;;;;;17.30;10.50;;;;;;;-0.14;60.97;94435.78;5071835;28;20028;-76
2023/04/06 02:19:06;;;;;;;18.80;10.65;;;;;;;-0.19;60.72;94430.03;5055317;28;20029;-75
2023/04/06 02:21:32;;;;;;;16.20;10.32;;;;;;;-0.05;61.73;94447.28;5072846;28;20498;-75
2023/04/06 02:23:57;;;;;;;15.27;10.00;;;;;;;-0.20;61.82;94427.56;5072083;28;20056;-75
2023/04/06 02:26:23;;;;;;;15.00;9.35;;;;;;;-0.09;60.97;94450.84;5090648;28;20039;-75
2023/04/06 02:28:48;;;;;;;14.07;8.88;;;;;;;-0.21;61.54;94444.59;5074966;28;20032;-74
2023/04/06 02:31:15;;;;;;;17.30;9.55;;;;;;;-0.09;61.75;94446.56;5071456;28;20036;-75
2023/04/06 02:33:41;;;;;;;17.63;9.85;;;;;;;-0.08;61.54;94437.22;5054933;28;20025;-75
2023/04/06 02:36:06;;;;;;;15.98;9.82;;;;;;;0.06;61.54;94447.59;5118132;27;20035;-75
2023/04/06 02:38:32;;;;;;;15.68;9.48;;;;;;;-0.27;61.53;94396.38;5091652;28;20445;-75
2023/04/06 02:40:57;;;;;;;18.17;10.38;;;;;;;0.04;61.23;94451.13;5091543;28;20028;-74
2023/04/06 02:43:23;;;;;;;16.38;9.18;;;;;;;0.09;60.94;94450.00;5092499;28;20062;-74
2023/04/06 02:45:48;;;;;;;14.15;8.45;;;;;;;0.05;60.96;94442.53;5087247;28;20491;-75
2023/04/06 02:48:13;;;;;;;16.58;9.85;;;;;;;0.03;61.24;94445.19;5087846;28;20045;-75
2023/04/06 02:50:39;;;;;;;18.05;10.35;;;;;;;0.12;61.26;94447.28;5054483;28;20036;-74
2023/04/06 02:53:04;;;;;;;24.38;11.63;;;;;;;0.10;61.19;94448.25;5084919;28;20087;-74
2023/04/06 02:55:30;;;;;;;17.33;9.18;;;;;;;0.11;60.88;94444.78;5071819;28;20486;-74
2023/04/06 02:57:55;;;;;;;18.25;9.45;;;;;;;0.10;61.23;94436.31;5071001;28;20398;-75
2023/04/06 03:00:21;;;;;;;14.23;8.85;;;;;;;0.09;61.30;94444.88;5066836;28;20059;-75
2023/04/06 03:02:46;;;;;;;16.05;10.02;;;;;;;0.05;61.12;94432.31;5069436;28;20028;-75
2023/04/06 03:05:12;;;;;;;15.13;9.65;;;;;;;0.11;61.18;94448.19;5037199;28;20027;-74
2023/04/06 03:07:37;;;;;;;16.85;9.57;;;;;;;0.14;61.26;94444.66;5081716;28;20070;-74
2023/04/06 03:10:03;;;;;;;16.65;9.50;;;;;;;0.14;60.79;94447.19;5074035;28;20448;-75
2023/04/06 03:12:29;;;;;;;15.38;10.07;;;;;;;0.05;60.39;94433.16;5090029;28;20072;-75
2023/04/06 03:14:54;;;;;;;16.65;10.13;;;;;;;-0.01;60.99;94441.94;5073934;28;20032;-74
2023/04/06 03:17:20;;;;;;;22.13;12.18;;;;;;;0.09;60.80;94436.41;5090286;28;20040;-75
2023/04/06 03:19:45;;;;;;;14.98;9.68;;;;;;;0.07;60.74;94444.13;5089510;28;20028;-75
2023/04/06 03:22:11;;;;;;;19.33;10.60;;;;;;;0.11;61.26;94442.25;5073756;28;20047;-74
2023/04/06 03:24:36;;;;;;;19.15;12.05;;;;;;;0.09;61.29;94431.28;5060104;28;20085;-75
2023/04/06 03:27:02;;;;;;;19.05;11.25;;;;;;;0.00;60.93;94424.91;5069431;28;20510;-75
2023/04/06 03:29:27;;;;;;;18.63;11.10;;;;;;;0.10;60.84;94443.97;5088479;28;20095;-75
2023/04/06 03:31:53;;;;;;;21.67;12.40;;;;;;;0.04;60.85;94430.69;5071192;28;20484;-74
2023/04/06 03:34:18;;;;;;;25.27;14.02;;;;;;;0.18;61.69;94446.16;5071162;28;20032;-74
2023/04/06 03:36:44;;;;;;;18.65;11.95;;;;;;;0.10;60.90;94435.50;5070997;28;20058;-74
2023/04/06 03:39:09;;;;;;;22.42;13.65;;;;;;;0.03;61.49;94439.22;5070214;28;20418;-74
2023/04/06 03:41:35;;;;;;;21.05;11.10;;;;;;;-0.12;61.39;94421.19;5086901;28;20042;-74
2023/04/06 03:44:00;;;;;;;21.38;12.55;;;;;;;0.12;61.42;94443.91;5088958;28;20028;-74
2023/04/06 03:46:26;;;;;;;21.05;11.68;;;;;;;0.14;60.53;94444.66;5071230;28;20544;-75
2023/04/06 03:48:51;;;;;;;21.52;13.60;;;;;;;0.07;60.77;94445.84;5089396;28;20031;-74
2023/04/06 03:51:17;;;;;;;18.58;11.43;;;;;;;0.03;60.99;94436.66;5085640;28;20031;-74
2023/04/06 03:53:42;;;;;;;28.17;16.70;;;;;;;0.11;61.08;94432.03;5067497;28;20070;-74
2023/04/06 03:56:07;;;;;;;18.90;11.15;;;;;;;0.25;60.90;94437.28;5090683;28;20031;-74
2023/04/06 03:58:33;;;;;;;18.10;11.95;;;;;;;0.03;60.53;94396.66;5088060;28;20024;-75
2023/04/06 04:00:59;;;;;;;15.10;9.73;;;;;;;0.24;60.85;94425.44;5050939;28;20564;-75
2023/04/06 04:03:26;;;;;;;15.75;9.48;;;;;;;0.29;60.97;94433.69;5083722;28;20063;-76
2023/04/06 04:05:52;;;;;;;16.30;10.60;;;;;;;0.34;61.40;94438.59;5086243;28;20036;-75
2023/04/06 04:08:17;;;;;;;13.43;8.52;;;;;;;0.32;60.93;94438.66;5086010;28;20047;-75
2023/04/06 04:10:43;;;;;;;19.77;12.38;;;;;;;0.08;60.90;94422.78;5087515;28;20035;-75
2023/04/06 04:13:08;;;;;;;21.80;14.32;;;;;;;0.04;60.70;94423.00;5083842;28;20506;-74
2023/04/06 04:15:34;;;;;;;15.60;9.52;;;;;;;0.11;60.99;94442.25;5068921;28;20038;-75
2023/04/06 04:18:00;;;;;;;13.30;8.82;;;;;;;0.17;60.43;94440.25;5088425;28;20025;-75
2023/04/06 04:20:25;;;;;;;24.92;12.63;;;;;;;0.20;60.17;94436.72;5084928;28;20032;-74
2023/04/06 04:22:51;;;;;;;17.48;10.30;;;;;;;0.28;60.58;94441.44;5068954;28;20047;-73
2023/04/06 04:25:16;;;;;;;17.92;10.15;;;;;;;0.24;60.54;94450.16;5068349;28;20043;-74
2023/04/06 04:27:41;;;;;;;25.65;14.48;;;;;;;0.18;60.68;94423.19;5101295;28;20036;-72
2023/04/06 04:30:07;;;;;;;14.43;9.27;;;;;;;0.43;59.90;94433.03;5069063;28;20482;-73
2023/04/06 04:32:33;;;;;;;14.98;8.30;;;;;;;0.58;59.73;94452.69;5085263;28;20024;-73
2023/04/06 04:34:58;;;;;;;17.30;9.02;;;;;;;0.44;59.07;94429.56;5083962;28;20543;-73
2023/04/06 04:37:24;;;;;;;15.57;9.95;;;;;;;0.55;59.45;94421.34;5087291;28;20036;-74
2023/04/06 04:39:50;;;;;;;17.55;10.48;;;;;;;0.50;59.10;94433.53;5084579;28;20052;-72
2023/04/06 04:42:15;;;;;;;23.85;13.65;;;;;;;0.44;59.04;94409.94;5051363;28;20494;-73
2023/04/06 04:44:41;;;;;;;16.13;10.70;;;;;;;0.77;59.61;94444.94;5083093;28;20036;-81
2023/04/06 04:47:06;;;;;;;16.05;10.35;;;;;;;0.81;58.87;94417.50;5084317;28;20032;-75
2023/04/06 04:49:32;;;;;;;17.95;10.55;;;;;;;0.95;58.96;94427.00;5084312;28;20028;-78
2023/04/06 04:51:57;;;;;;;16.48;9.32;;;;;;;1.06;58.33;94442.66;5085505;28;20087;-74
2023/04/06 04:54:23;;;;;;;13.63;8.48;;;;;;;1.39;57.21;94434.09;5083876;28;20020;-74
2023/04/06 04:56:48;;;;;;;14.48;9.20;;;;;;;1.78;56.41;94441.38;5085613;28;20489;-76
2023/04/06 04:59:14;;;;;;;13.32;9.23;;;;;;;2.99;53.18;94437.06;5085561;28;20093;-76
2023/04/06 05:01:39;;;;;;;12.93;8.45;;;;;;;3.40;52.20;94441.50;5086283;28;20504;-73
2023/04/06 05:04:05;;;;;;;14.18;8.70;;;;;;;4.25;49.80;94437.03;5082948;28;20066;-74
2023/04/06 05:06:30;;;;;;;14.63;9.07;;;;;;;4.43;48.53;94425.59;5085303;28;20055;-74
2023/04/06 05:08:56;;;;;;;12.77;8.93;;;;;;;5.56;46.40;94434.34;5068250;28;20516;-74
2023/04/06 05:11:21;;;;;;;11.63;8.30;;;;;;;6.58;43.49;94422.88;5066052;28;20080;-75
2023/04/06 05:13:47;;;;;;;12.73;8.88;;;;;;;7.11;42.16;94421.44;5066263;28;20040;-76
2023/04/06 05:16:12;;;;;;;12.00;8.20;;;;;;;6.55;43.22;94436.00;5068335;28;20095;-76
2023/04/06 05:18:38;;;;;;;14.50;9.07;;;;;;;5.47;44.17;94398.94;5088700;28;20044;-74
2023/04/06 05:21:03;;;;;;;16.42;11.00;;;;;;;5.14;45.52;94414.00;5089730;28;20028;-73
2023/04/06 05:23:29;;;;;;;13.60;8.88;;;;;;;4.70;46.10;94389.47;5053757;28;20028;-74
2023/04/06 05:25:55;;;;;;;14.50;8.85;;;;;;;4.65;46.86;94437.88;5070159;28;20403;-74
2023/04/06 05:28:20;;;;;;;13.27;9.15;;;;;;;4.22;47.88;94439.81;5069554;28;20032;-78
2023/04/06 05:30:46;;;;;;;14.23;9.18;;;;;;;4.18;48.75;94434.06;5055045;28;20054;-74
2023/04/06 05:33:11;;;;;;;22.08;9.20;;;;;;;3.86;49.13;94442.97;5086010;28;20028;-75
2023/04/06 05:35:37;;;;;;;11.85;8.35;;;;;;;3.75;49.57;94441.06;5087664;28;20409;-74
2023/04/06 05:38:03;;;;;;;13.65;8.98;;;;;;;3.52;49.69;94437.34;5088052;28;20050;-76
2023/04/06 05:40:28;;;;;;;13.70;9.23;;;;;;;3.33;51.05;94438.44;5087745;28;20491;-75
2023/04/06 05:42:54;;;;;;;14.43;9.07;;;;;;;3.35;50.67;94436.63;5088841;28;20028;-75
2023/04/06 05:45:20;;;;;;;16.27;9.65;;;;;;;3.18;51.21;94433.44;5087537;28;20418;-74
2023/04/06 05:47:45;;;;;;;14.25;8.82;;;;;;;3.16;51.67;94437.81;5089516;28;20073;-74
2023/04/06 05:50:11;;;;;;;18.60;10.70;;;;;;;3.22;51.42;94435.69;5072215;28;20028;-84
2023/04/06 05:52:37;;;;;;;14.27;8.45;;;;;;;2.69;52.80;94419.16;5070883;28;20028;-76
2023/04/06 05:55:03;;;;;;;16.75;10.77;;;;;;;2.85;52.91;94434.50;5090814;28;20036;-77
2023/04/06 05:57:29;;;;;;;14.60;9.63;;;;;;;2.73;52.66;94435.19;5089023;28;20029;-77
2023/04/06 05:59:55;;;;;;;14.30;9.02;;;;;;;2.69;52.68;94430.25;5090758;28;20066;-76
2023/04/06 06:02:21;;;;;;;15.63;9.10;;;;;;;2.60;53.07;94424.84;5085115;28;20040;-75
2023/04/06 06:04:46;;;;;;;15.75;9.05;;;;;;;2.74;53.43;94421.47;5086092;28;20040;-74
2023/04/06 06:07:12;;;;;;;16.75;10.00;;;;;;;2.76;53.51;94435.03;5090270;28;20480;-75
2023/04/06 06:09:37;;;;;;;16.55;9.43;;;;;;;2.83;52.81;94415.81;5086106;28;20063;-75
2023/04/06 06:12:02;;;;;;;16.38;9.45;;;;;;;2.69;53.47;94430.25;5084763;28;20028;-75
2023/04/06 06:14:28;;;;;;;17.70;9.25;;;;;;;2.66;53.47;94425.31;5073278;28;20039;-74
2023/04/06 06:16:54;;;;;;;18.20;10.45;;;;;;;2.71;53.55;94431.91;5073679;28;20040;-74
2023/04/06 06:19:19;;;;;;;17.95;10.77;;;;;;;2.62;54.13;94411.03;5089426;28;20498;-75
2023/04/06 06:21:45;;;;;;;14.50;10.05;;;;;;;2.12;54.06;94355.78;5106540;28;20028;-75
2023/04/06 06:24:11;;;;;;;14.85;10.20;;;;;;;2.60;54.10;94417.16;5070409;28;20051;-73
2023/04/06 06:26:37;;;;;;;15.48;9.95;;;;;;;2.74;54.13;94431.75;5071641;28;20036;-75
2023/04/06 06:29:04;;;;;;;23.65;12.93;;;;;;;2.80;54.49;94421.94;5089581;28;20513;-75
2023/04/06 06:31:30;;;;;;;25.90;14.23;;;;;;;2.90;54.19;94424.81;5083847;28;20044;-76
2023/04/06 06:33:56;;;;;;;24.38;12.38;;;;;;;3.14;53.80;94423.31;5069428;28;20448;-76
2023/04/06 06:36:22;;;;;;;20.20;11.35;;;;;;;3.13;53.07;94421.69;5087921;28;20064;-74
2023/04/06 06:38:47;;;;;;;21.52;11.23;;;;;;;3.06;53.39;94412.69;5088500;28;20109;-75
2023/04/06 06:41:13;;;;;;;18.63;11.18;;;;;;;3.08;53.02;94400.59;5085412;28;20407;-75
2023/04/06 06:43:39;;;;;;;21.10;12.10;;;;;;;3.29;53.01;94413.88;5086892;28;20494;-77
2023/04/06 06:46:05;;;;;;;23.92;14.63;;;;;;;3.49;53.12;94420.38;5086526;28;20028;-75
2023/04/06 06:48:30;;;;;;;20.95;12.52;;;;;;;3.80;52.22;94416.72;5088058;28;20040;-74
2023/04/06 06:50:56;;;;;;;21.30;13.02;;;;;;;4.19;51.50;94422.84;5086227;28;20035;-77
2023/04/06 06:53:22;;;;;;;26.48;13.68;;;;;;;4.40;50.98;94409.50;5087728;28;20486;-76
2023/04/06 06:55:50;;;;;;;18.20;11.60;;;;;;;4.60;50.68;94415.94;5085222;28;20289;-76
2023/04/06 06:58:17;;;;;;;21.15;13.00;;;;;;;4.88;49.73;94412.38;5086385;28;20043;-75
2023/04/06 07:00:43;;;;;;;25.25;14.38;;;;;;;5.02;49.69;94414.03;5070515;28;20516;-76
2023/04/06 07:03:08;;;;;;;21.67;13.95;;;;;;;5.14;49.72;94408.03;5086706;28;20040;-76
2023/04/06 07:05:35;;;;;;;17.35;11.40;;;;;;;5.18;48.87;94381.13;5081253;28;20436;-80
2023/04/06 07:08:00;;;;;;;19.30;11.93;;;;;;;5.70;47.62;94412.78;5069558;28;20552;-76
2023/04/06 07:10:26;;;;;;;19.73;11.82;;;;;;;5.46;47.03;94392.09;5087261;28;20031;-79
2023/04/06 07:12:51;;;;;;;23.27;13.57;;;;;;;5.65;46.70;94415.66;5087686;28;20642;-81
2023/04/06 07:15:17;;;;;;;26.02;15.25;;;;;;;5.85;47.90;94416.03;5085333;28;20075;-74
2023/04/06 07:17:44;;;;;;;19.10;11.27;;;;;;;5.78;47.58;94389.88;5087780;28;20098;-77
2023/04/06 07:20:11;;;;;;;16.67;9.38;;;;;;;5.60;46.18;94361.06;5071499;28;20077;-80
2023/04/06 07:22:37;;;;;;;16.52;10.27;;;;;;;5.87;46.56;94411.59;5069405;28;20826;-78
2023/04/06 07:25:03;;;;;;;12.77;8.18;;;;;;;5.96;45.69;94416.13;5070568;28;20530;-75
2023/04/06 07:27:28;;;;;;;18.00;11.63;;;;;;;5.65;47.08;94392.47;5081999;28;20131;-77
2023/04/06 07:29:54;;;;;;;18.65;12.32;;;;;;;5.90;47.13;94401.88;5087589;28;20032;-79
2023/04/06 07:32:19;;;;;;;20.92;11.95;;;;;;;6.00;46.47;94386.63;5086414;28;20486;-77
2023/04/06 07:34:46;;;;;;;18.73;12.75;;;;;;;5.94;46.39;94397.38;5091199;28;20455;-79
2023/04/06 07:37:12;;;;;;;18.27;11.15;;;;;;;5.87;46.68;94385.81;5123578;27;20043;-78
2023/04/06 07:39:37;;;;;;;15.05;10.38;;;;;;;5.95;46.25;94411.91;5072887;28;20402;-78
2023/04/06 07:42:03;;;;;;;19.88;10.85;;;;;;;6.01;45.69;94404.53;5072057;28;20043;-78
2023/04/06 07:44:28;;;;;;;16.27;9.63;;;;;;;5.89;45.95;94379.63;5073412;28;20044;-79
2023/04/06 07:46:54;;;;;;;19.58;10.88;;;;;;;6.22;45.27;94407.34;5091340;28;20044;-78
2023/04/06 07:49:20;;;;;;;19.80;12.30;;;;;;;5.93;46.00;94385.38;5072458;28;20027;-78
2023/04/06 07:51:46;;;;;;;24.65;12.65;;;;;;;6.11;45.92;94404.72;5072687;28;20040;-78
2023/04/06 07:54:11;;;;;;;19.15;10.57;;;;;;;5.61;46.53;94411.66;5073242;28;20026;-78
2023/04/06 07:56:37;;;;;;;15.15;10.32;;;;;;;5.52;47.21;94400.25;5089653;28;20082;-78
2023/04/06 07:59:02;;;;;;;18.83;10.65;;;;;;;5.64;46.36;94365.06;5072835;28;20538;-77
2023/04/06 08:01:28;;;;;;;19.92;12.32;;;;;;;5.73;47.07;94400.50;5089599;28;20496;-77
2023/04/06 08:03:55;;;;;;;16.30;10.60;;;;;;;5.60;47.07;94405.69;5071111;28;20055;-78
2023/04/06 08:06:21;;;;;;;17.42;11.07;;;;;;;5.72;47.42;94398.84;5072685;28;20040;-77
2023/04/06 08:08:46;;;;;;;16.95;11.35;;;;;;;5.41;48.14;94399.34;5056334;28;20036;-78
2023/04/06 08:11:12;;;;;;;20.65;12.65;;;;;;;5.65;48.82;94397.63;5090076;28;20070;-78
2023/04/06 08:13:37;;;;;;;19.52;12.68;;;;;;;5.55;47.78;94400.03;5089833;28;20039;-78
2023/04/06 08:16:03;;;;;;;25.27;13.63;;;;;;;5.59;47.85;94388.56;5091407;28;20050;-78
2023/04/06 08:18:29;;;;;;;21.70;13.52;;;;;;;5.50;47.51;94360.06;5090567;28;20486;-77
2023/04/06 08:20:55;;;;;;;19.30;12.27;;;;;;;5.80;47.98;94396.56;5089366;28;20474;-78
2023/04/06 08:23:21;;;;;;;17.92;11.55;;;;;;;5.89;47.32;94404.56;5084529;28;20053;-77
2023/04/06 08:25:46;;;;;;;18.50;12.23;;;;;;;5.68;47.44;94387.09;5056068;28;20035;-77
2023/04/06 08:28:12;;;;;;;22.05;11.38;;;;;;;5.51;47.95;94356.53;5089648;28;20028;-77
2023/04/06 08:30:42;;;;;;;17.33;11.30;;;;;;;5.79;47.36;94388.94;5089650;28;20066;-76
2023/04/06 08:33:08;;;;;;;16.50;10.90;;;;;;;5.48;47.43;94361.91;5089765;28;20111;-76
2023/04/06 08:35:33;;;;;;;13.73;9.30;;;;;;;5.92;46.00;94399.19;5090662;28;20115;-76
2023/04/06 08:37:59;;;;;;;13.77;8.20;;;;;;;5.73;46.40;94413.38;5089455;28;20025;-77
2023/04/06 08:40:25;;;;;;;14.07;8.65;;;;;;;5.89;45.99;94397.66;5088668;28;20032;-76
2023/04/06 08:42:54;;;;;;;12.52;9.23;;;;;;;5.57;46.01;94381.88;5086920;28;20452;-77
2023/04/06 08:45:21;;;;;;;15.27;9.60;;;;;;;5.93;46.18;94391.38;5070788;28;20605;-77
2023/04/06 08:47:50;;;;;;;16.17;9.20;;;;;;;5.65;45.98;94322.06;5089348;28;20087;-77
2023/04/06 08:50:16;;;;;;;14.95;9.88;;;;;;;6.26;45.60;94400.22;5089354;28;20409;-78
2023/04/06 08:52:43;;;;;;;12.55;8.70;;;;;;;6.21;45.94;94387.66;5090338;28;20036;-78
2023/04/06 08:55:09;;;;;;;14.15;8.48;;;;;;;6.55;45.22;94392.94;5089545;28;20514;-78
2023/04/06 08:57:35;;;;;;;13.20;8.32;;;;;;;6.17;43.86;94324.31;5093701;28;20100;-78
2023/04/06 09:00:01;;;;;;;10.93;8.00;;;;;;;6.62;44.55;94396.69;5075334;28;20047;-77
2023/04/06 09:02:27;;;;;;;11.65;8.13;;;;;;;6.44;43.29;94355.03;5090771;28;20032;-80
2023/04/06 09:04:53;;;;;;;12.63;8.52;;;;;;;6.22;43.79;94324.81;5093364;28;20057;-76
2023/04/06 09:07:18;;;;;;;14.07;8.32;;;;;;;6.41;43.89;94381.06;5102732;28;20494;-75
2023/04/06 09:09:47;;;;;;;14.85;8.95;;;;;;;6.21;45.42;94377.34;5089677;28;20093;-79
2023/04/06 09:12:28;;;;;;;12.18;8.23;;;;;;;5.51;45.42;94274.09;5091439;28;20040;-80
2023/04/06 09:14:55;;;;;;;13.57;8.90;;;;;;;6.10;44.92;94330.03;5083708;28;20026;-80
2023/04/06 09:17:26;;;;;;;14.15;9.23;;;;;;;5.54;45.17;94326.25;5090115;28;20056;-75
2023/04/06 09:19:51;;;;;;;12.80;8.57;;;;;;;6.09;44.88;94380.78;5074121;28;20063;-78
2023/04/06 09:22:17;;;;;;;14.57;9.55;;;;;;;6.29;44.96;94375.94;5088777;28;20793;-78
2023/04/06 09:24:48;;;;;;;12.68;8.82;;;;;;;6.34;45.89;94381.59;5089551;28;20033;-78
2023/04/06 09:27:13;;;;;;;13.95;8.85;;;;;;;6.41;45.88;94369.91;5091218;28;20096;-78
2023/04/06 09:29:40;;;;;;;17.92;10.70;;;;;;;5.99;45.71;94266.34;5072177;28;20033;-78
2023/04/06 09:32:06;;;;;;;15.25;9.27;;;;;;;6.33;44.89;94275.00;5085030;28;20478;-80
2023/04/06 09:34:33;;;;;;;13.07;9.23;;;;;;;6.51;45.02;94285.69;5091605;28;20109;-79
2023/04/06 09:36:58;;;;;;;17.17;10.00;;;;;;;6.54;43.62;94311.28;5088884;28;20048;-79
2023/04/06 09:39:24;;;;;;;14.73;9.32;;;;;;;6.90;43.41;94361.91;5093887;27;20059;-80
2023/04/06 09:41:54;;;;;;;17.08;9.55;;;;;;;7.14;44.57;94371.31;5095104;28;20064;-79
2023/04/06 09:44:20;;;;;;;12.88;8.60;;;;;;;6.65;43.74;94302.72;5089589;28;20165;-79
2023/04/06 09:46:46;;;;;;;11.93;8.50;;;;;;;6.67;42.46;94262.97;5089253;28;20112;-79
2023/04/06 09:49:11;;;;;;;11.23;7.97;;;;;;;7.02;42.84;94261.19;5089999;28;20478;-78
2023/04/06 09:51:48;;;;;;;11.82;8.02;;;;;;;7.77;43.05;94338.00;5072737;28;20165;-79
2023/04/06 09:54:18;;;;;;;12.27;8.73;;;;;;;8.25;42.05;94366.06;5059617;28;20039;-82
2023/04/06 09:56:47;;;;;;;12.32;8.60;;;;;;;8.23;41.84;94361.00;5085036;28;20446;-80
2023/04/06 09:59:14;;;;;;;14.60;9.07;;;;;;;7.92;40.88;94334.19;5091930;28;20067;-79
2023/04/06 10:01:40;;;;;;;12.93;9.00;;;;;;;7.66;40.49;94348.34;5085435;28;20031;-78
2023/04/06 10:04:24;;;;;;;11.82;8.15;;;;;;;7.91;40.71;94373.94;5056834;28;20029;-78
2023/04/06 10:06:52;;;;;;;15.27;9.50;;;;;;;6.60;41.53;94254.06;5091590;28;20043;-77
2023/04/06 10:09:18;;;;;;;12.85;9.15;;;;;;;7.35;41.85;94371.41;5088512;28;20028;-77
2023/04/06 10:11:43;;;;;;;15.05;9.20;;;;;;;7.47;41.96;94364.50;5081695;28;20459;-79
2023/04/06 10:14:09;;;;;;;20.75;9.98;;;;;;;7.32;42.32;94322.56;5071074;28;20074;-78
2023/04/06 10:16:35;;;;;;;10.93;7.18;;;;;;;6.53;40.79;94250.28;5089473;28;20028;-76
2023/04/06 10:19:12;;;;;;;11.20;8.15;;;;;;;7.11;40.32;94349.13;5089851;28;20121;-75
2023/04/06 10:21:37;;;;;;;10.73;7.68;;;;;;;7.11;41.26;94348.31;5065978;28;20060;-77
2023/04/06 10:24:10;;;;;;;14.10;8.80;;;;;;;7.23;41.00;94354.28;5071143;28;20430;-77
2023/04/06 10:26:36;;;;;;;17.20;11.00;;;;;;;6.37;41.72;94229.16;5069131;28;20132;-78
2023/04/06 10:29:05;;;;;;;15.98;10.27;;;;;;;6.53;42.22;94289.00;5089840;28;20462;-78
2023/04/06 10:31:30;;;;;;;14.88;10.35;;;;;;;6.76;42.64;94349.22;5070569;28;20024;-77
2023/04/06 10:34:00;;;;;;;15.15;9.02;;;;;;;6.29;42.74;94339.84;5087873;28;20093;-76
2023/04/06 10:36:27;;;;;;;12.57;8.65;;;;;;;6.23;42.61;94341.91;5087862;28;20032;-76
2023/04/06 10:38:58;;;;;;;12.90;8.68;;;;;;;6.36;42.61;94341.03;5087490;28;20414;-78
2023/04/06 10:41:25;;;;;;;16.60;8.90;;;;;;;6.07;42.52;94318.19;5066915;28;20032;-77
2023/04/06 10:43:57;;;;;;;16.42;10.38;;;;;;;5.36;43.55;94233.06;5069191;28;20489;-77
2023/04/06 10:46:27;;;;;;;20.85;13.27;;;;;;;5.76;43.77;94237.88;5085069;28;20345;-78
2023/04/06 10:48:52;;;;;;;28.92;15.00;;;;;;;5.96;42.64;94274.31;5087722;28;20401;-77
2023/04/06 10:51:18;;;;;;;26.73;14.00;;;;;;;5.86;43.05;94252.69;5085432;28;20036;-78
2023/04/06 10:53:46;;;;;;;23.95;15.70;;;;;;;6.05;42.67;94234.97;5086702;28;20044;-78
2023/04/06 10:56:13;;;;;;;14.30;10.35;;;;;;;6.36;43.68;94336.69;5087148;28;20028;-78
2023/04/06 10:58:38;;;;;;;12.13;8.82;;;;;;;6.30;42.74;94331.19;5085586;28;20035;-77
2023/04/06 11:01:04;;;;;;;17.33;10.38;;;;;;;5.48;43.55;94230.53;5070556;28;20155;-77
2023/04/06 11:03:30;;;;;;;19.65;11.50;;;;;;;5.56;44.28;94231.59;5088539;28;20028;-77
2023/04/06 11:05:55;;;;;;;21.58;13.35;;;;;;;5.74;44.95;94211.44;5087220;28;20084;-77
2023/04/06 11:08:30;;;;;;;19.60;14.82;;;;;;;6.66;44.23;94333.59;5087008;28;20027;-78
2023/04/06 11:11:05;;;;;;;16.13;10.50;;;;;;;6.58;43.63;94335.13;5082496;28;20410;-78
2023/04/06 11:13:46;;;;;;;16.45;9.82;;;;;;;5.85;43.60;94235.56;5087881;28;20032;-78
2023/04/06 11:16:21;;;;;;;17.83;10.93;;;;;;;5.76;44.57;94209.53;5086352;28;20102;-78
2023/04/06 11:18:53;;;;;;;14.98;10.50;;;;;;;5.98;44.78;94250.06;5088276;28;20104;-78
2023/04/06 11:21:19;;;;;;;18.58;11.80;;;;;;;6.65;44.07;94315.63;5087594;28;20099;-78